Time;durP1;ratioP1;P1;durP2;ratioP2;P2;SDS_P1;SDS_P2;PMS_P1;PMS_P2;Temp;Humidity;BMP_temperature;BMP_pressure;BME280_temperature;BME280_humidity;BME280_pressure;Samples;Min_cycle;Max_cycle;Signal;HPM_P1;HPM_P2
2023/01/23 00:00:05;;;;;;;22.03;11.33;;;1.10;99.90;;;;;;6236838;23;20152;-84
2023/01/23 00:02:31;;;;;;;22.55;11.45;;;1.20;99.90;;;;;;6237053;23;20153;-84
2023/01/23 00:04:56;;;;;;;18.87;11.30;;;1.20;99.90;;;;;;6231018;23;20233;-81
2023/01/23 00:07:22;;;;;;;19.83;10.67;;;1.20;99.90;;;;;;6236246;23;20156;-83
2023/01/23 00:09:47;;;;;;;18.53;10.70;;;1.20;99.90;;;;;;6236807;23;20529;-82
2023/01/23 00:12:13;;;;;;;26.17;13.60;;;1.10;99.90;;;;;;6237032;23;20139;-83
2023/01/23 00:14:38;;;;;;;21.40;10.93;;;1.10;99.90;;;;;;6234249;23;20238;-83
2023/01/23 00:17:04;;;;;;;18.60;11.17;;;1.10;99.90;;;;;;6237715;23;20156;-83
2023/01/23 00:19:29;;;;;;;16.93;10.90;;;1.10;99.90;;;;;;6236418;23;20159;-85
2023/01/23 00:21:58;;;;;;;20.27;12.00;;;1.10;99.90;;;;;;6237340;23;20183;-82
2023/01/23 00:24:24;;;;;;;20.40;11.68;;;1.10;99.90;;;;;;6237982;22;20653;-83
2023/01/23 00:26:49;;;;;;;19.80;11.13;;;1.00;99.90;;;;;;6258915;22;20156;-80
2023/01/23 00:29:15;;;;;;;22.33;11.50;;;1.00;99.90;;;;;;6242864;23;20183;-83
2023/01/23 00:31:40;;;;;;;19.37;11.50;;;1.00;99.90;;;;;;6241307;23;20176;-81
2023/01/23 00:34:12;;;;;;;17.00;11.00;;;1.00;99.90;;;;;;6241467;23;20180;-82
2023/01/23 00:36:41;;;;;;;19.50;11.65;;;1.10;99.90;;;;;;6237120;23;20148;-86
2023/01/23 00:39:10;;;;;;;22.08;10.77;;;1.20;99.90;;;;;;6238976;23;20153;-84
2023/01/23 00:41:36;;;;;;;17.88;10.80;;;1.20;99.90;;;;;;6243294;23;20180;-81
2023/01/23 00:44:01;;;;;;;18.60;10.33;;;1.20;99.90;;;;;;6239929;23;20230;-82
2023/01/23 00:46:27;;;;;;;20.50;9.57;;;1.30;99.90;;;;;;6245940;23;20153;-84
2023/01/23 00:48:52;;;;;;;20.33;10.67;;;1.30;99.90;;;;;;6237016;23;20164;-84
2023/01/23 00:51:18;;;;;;;17.80;9.57;;;1.30;99.90;;;;;;6241276;23;20247;-84
2023/01/23 00:53:43;;;;;;;19.97;10.67;;;1.30;99.90;;;;;;6240513;23;20187;-82
2023/01/23 00:56:09;;;;;;;23.10;11.80;;;1.30;99.90;;;;;;6241080;23;20677;-84
2023/01/23 00:58:35;;;;;;;21.47;10.37;;;1.30;99.90;;;;;;6237152;23;20156;-83
2023/01/23 01:01:00;;;;;;;15.27;9.73;;;1.20;99.90;;;;;;6242282;23;20495;-84
2023/01/23 01:03:26;;;;;;;16.43;10.13;;;1.10;99.90;;;;;;6258770;22;20320;-84
2023/01/23 01:05:51;;;;;;;17.93;10.43;;;1.10;99.90;;;;;;6228015;23;20160;-81
2023/01/23 01:08:17;;;;;;;20.90;10.50;;;1.10;99.90;;;;;;6236642;23;20153;-84
2023/01/23 01:10:43;;;;;;;19.83;11.17;;;1.10;99.90;;;;;;6237017;23;20222;-84
2023/01/23 01:13:09;;;;;;;18.27;9.83;;;1.20;99.90;;;;;;6237134;23;20387;-82
2023/01/23 01:15:35;;;;;;;19.63;10.13;;;1.20;99.90;;;;;;6235184;23;20184;-82
2023/01/23 01:18:01;;;;;;;18.27;9.67;;;1.20;99.90;;;;;;6235090;23;20179;-82
2023/01/23 01:20:27;;;;;;;18.60;10.70;;;1.20;99.90;;;;;;6235383;23;20486;-85
2023/01/23 01:22:55;;;;;;;15.98;9.10;;;1.20;99.90;;;;;;6235983;23;20545;-82
2023/01/23 01:25:21;;;;;;;17.95;9.95;;;1.30;99.90;;;;;;6234278;23;20462;-84
2023/01/23 01:27:47;;;;;;;20.88;9.60;;;1.20;99.90;;;;;;6233132;23;20159;-82
2023/01/23 01:30:14;;;;;;;16.27;9.07;;;1.20;99.90;;;;;;6236837;23;20157;-85
2023/01/23 01:32:40;;;;;;;17.92;10.98;;;1.20;99.90;;;;;;6234181;23;20654;-83
2023/01/23 01:35:07;;;;;;;20.33;10.20;;;1.20;99.90;;;;;;6233806;22;20179;-82
2023/01/23 01:37:34;;;;;;;16.52;9.30;;;1.30;99.90;;;;;;6235477;22;20595;-84
2023/01/23 01:40:00;;;;;;;18.42;9.95;;;1.30;99.90;;;;;;6234219;23;20149;-82
2023/01/23 01:42:27;;;;;;;17.98;9.35;;;1.40;99.90;;;;;;6234342;23;20159;-84
2023/01/23 01:45:01;;;;;;;16.92;9.35;;;1.40;99.90;;;;;;6235221;23;20198;-85
2023/01/23 01:47:26;;;;;;;17.88;9.57;;;1.40;99.90;;;;;;6235165;23;20171;-83
2023/01/23 01:49:59;;;;;;;19.60;10.97;;;1.40;99.90;;;;;;6233325;23;20511;-84
2023/01/23 01:52:26;;;;;;;18.30;9.85;;;1.40;99.90;;;;;;6236872;22;20559;-84
2023/01/23 01:54:58;;;;;;;13.68;8.35;;;1.30;99.90;;;;;;6232601;23;20204;-84
2023/01/23 01:57:40;;;;;;;17.90;9.40;;;1.30;99.90;;;;;;6232558;23;20144;-84
2023/01/23 02:00:14;;;;;;;14.38;8.50;;;1.30;99.90;;;;;;6233957;23;20156;-83
2023/01/23 02:02:48;;;;;;;19.27;9.70;;;1.30;99.90;;;;;;6230316;23;20193;-84
2023/01/23 02:05:25;;;;;;;17.65;9.77;;;1.40;99.90;;;;;;6234679;22;20657;-84
2023/01/23 02:08:02;;;;;;;16.67;9.13;;;1.40;99.90;;;;;;6238394;22;20132;-82
2023/01/23 02:10:27;;;;;;;13.93;8.57;;;1.40;99.90;;;;;;6235677;22;20232;-82
2023/01/23 02:12:53;;;;;;;17.20;8.97;;;1.30;99.90;;;;;;6236849;23;20241;-84
2023/01/23 02:15:21;;;;;;;19.47;10.43;;;1.30;99.90;;;;;;6235170;23;20248;-83
2023/01/23 02:17:50;;;;;;;19.77;9.23;;;1.20;99.90;;;;;;6236565;23;20176;-82
2023/01/23 02:20:22;;;;;;;19.85;10.80;;;1.10;99.90;;;;;;6235659;23;20171;-83
2023/01/23 02:23:17;;;;;;;19.35;10.50;;;1.10;99.90;;;;;;6235045;23;20657;-85
2023/01/23 02:25:42;;;;;;;18.52;10.18;;;1.10;99.90;;;;;;6235829;23;20243;-84
2023/01/23 02:28:12;;;;;;;18.63;10.10;;;1.10;99.90;;;;;;6243153;23;20161;-83
2023/01/23 02:30:39;;;;;;;23.30;10.35;;;1.00;99.90;;;;;;6256408;22;20216;-83
2023/01/23 02:33:31;;;;;;;15.75;9.55;;;1.10;99.90;;;;;;6236416;23;20149;-83
2023/01/23 02:35:58;;;;;;;16.90;10.38;;;1.20;99.90;;;;;;6234288;23;20202;-84
2023/01/23 02:38:31;;;;;;;23.70;10.90;;;1.10;99.90;;;;;;6233667;23;20260;-84
2023/01/23 02:41:01;;;;;;;20.42;10.55;;;1.10;99.90;;;;;;6234762;23;21074;-84
2023/01/23 02:43:33;;;;;;;25.02;12.00;;;1.10;99.90;;;;;;6239060;23;20172;-82
2023/01/23 02:46:04;;;;;;;17.05;9.65;;;1.10;99.90;;;;;;6236755;23;20175;-84
2023/01/23 02:48:29;;;;;;;23.58;10.93;;;1.20;99.90;;;;;;6238831;23;20163;-84
2023/01/23 02:50:55;;;;;;;17.23;9.93;;;1.30;99.90;;;;;;6241390;23;20144;-84
2023/01/23 02:53:20;;;;;;;26.70;9.83;;;1.30;99.90;;;;;;6239267;23;20183;-84
2023/01/23 02:55:46;;;;;;;19.13;11.20;;;1.40;99.90;;;;;;6238810;23;20191;-83
2023/01/23 03:00:56;;;;;;;16.25;9.63;;;1.50;99.90;;;;;;6241213;23;20143;-84
2023/01/23 03:03:22;;;;;;;15.03;8.73;;;1.50;99.90;;;;;;6243817;23;20172;-83
2023/01/23 03:05:47;;;;;;;18.83;10.53;;;1.50;99.90;;;;;;6238075;23;20149;-83
2023/01/23 03:08:13;;;;;;;20.80;9.30;;;1.50;99.90;;;;;;6241465;23;20227;-82
2023/01/23 03:10:38;;;;;;;20.00;10.40;;;1.50;99.90;;;;;;6239192;23;20156;-83
2023/01/23 03:13:06;;;;;;;20.00;10.63;;;1.50;99.90;;;;;;6239106;23;20153;-84
2023/01/23 03:15:37;;;;;;;21.05;10.50;;;1.50;99.90;;;;;;6240537;23;20157;-83
2023/01/23 03:18:03;;;;;;;23.55;11.25;;;1.50;99.90;;;;;;6241009;23;20171;-84
2023/01/23 03:20:28;;;;;;;21.80;11.23;;;1.60;99.90;;;;;;6237130;22;20243;-82
2023/01/23 03:22:56;;;;;;;20.80;11.60;;;1.60;99.90;;;;;;6239156;23;20245;-84
2023/01/23 03:25:21;;;;;;;17.80;10.25;;;1.60;99.90;;;;;;6236969;23;20805;-83
2023/01/23 03:27:47;;;;;;;19.73;12.13;;;1.70;99.90;;;;;;6234037;23;20157;-84
2023/01/23 03:30:20;;;;;;;22.30;11.43;;;1.70;99.90;;;;;;6242759;23;20270;-84
2023/01/23 03:32:46;;;;;;;24.95;12.60;;;1.70;99.90;;;;;;6239004;23;20145;-82
2023/01/23 03:35:13;;;;;;;18.73;11.27;;;1.70;99.90;;;;;;6240310;23;20192;-83
2023/01/23 03:37:39;;;;;;;23.98;11.18;;;1.70;99.90;;;;;;6240374;22;20372;-83
2023/01/23 03:42:50;;;;;;;20.70;10.55;;;1.50;99.90;;;;;;6242549;23;20198;-82
2023/01/23 03:45:15;;;;;;;19.07;10.97;;;1.40;99.90;;;;;;6240580;23;20164;-84
2023/01/23 03:47:41;;;;;;;20.50;10.10;;;1.30;99.90;;;;;;6239717;23;20159;-83
2023/01/23 03:50:07;;;;;;;21.57;11.10;;;1.40;99.90;;;;;;6241597;23;20153;-83
2023/01/23 03:52:33;;;;;;;19.73;10.70;;;1.40;99.90;;;;;;6240495;22;20153;-81
2023/01/23 03:54:59;;;;;;;27.35;11.45;;;1.40;99.90;;;;;;6240029;23;20271;-83
2023/01/23 03:57:24;;;;;;;17.57;9.17;;;1.40;99.90;;;;;;6252543;22;20175;-82
2023/01/23 03:59:50;;;;;;;62.57;32.23;;;1.40;99.90;;;;;;6249746;23;20535;-82
2023/01/23 04:02:15;;;;;;;40.00;20.20;;;1.40;99.90;;;;;;6241975;23;20969;-83
2023/01/23 04:04:41;;;;;;;28.37;14.23;;;1.30;99.90;;;;;;6238440;23;20173;-83
2023/01/23 04:07:07;;;;;;;198.13;76.73;;;1.40;99.90;;;;;;6238699;23;20156;-83
2023/01/23 04:09:32;;;;;;;35.15;14.98;;;1.30;99.90;;;;;;6241455;23;20159;-83
2023/01/23 04:11:59;;;;;;;24.57;12.60;;;1.30;99.90;;;;;;6244949;23;20211;-83
2023/01/23 04:14:26;;;;;;;25.75;11.18;;;1.30;99.90;;;;;;6243029;22;20250;-83
2023/01/23 04:16:55;;;;;;;23.05;11.95;;;1.30;99.90;;;;;;6242757;23;20148;-84
2023/01/23 04:19:21;;;;;;;25.13;12.48;;;1.40;99.90;;;;;;6239273;23;20144;-81
2023/01/23 04:21:47;;;;;;;33.13;16.00;;;1.50;99.90;;;;;;6261384;22;20159;-82
2023/01/23 04:24:14;;;;;;;68.30;31.02;;;1.40;99.90;;;;;;6246335;23;20698;-83
2023/01/23 04:26:40;;;;;;;66.60;33.00;;;1.40;99.90;;;;;;6245520;23;20152;-85
2023/01/23 04:29:05;;;;;;;95.88;44.85;;;1.40;99.90;;;;;;6240538;22;20172;-85
2023/01/23 04:31:31;;;;;;;38.93;19.03;;;1.40;99.90;;;;;;6241502;23;20151;-82
2023/01/23 04:33:57;;;;;;;24.33;12.83;;;1.40;99.90;;;;;;6240851;23;20222;-84
2023/01/23 04:36:22;;;;;;;22.50;11.17;;;1.40;99.90;;;;;;6239387;23;20390;-83
2023/01/23 04:38:48;;;;;;;28.27;17.07;;;1.40;99.90;;;;;;6242197;23;20155;-84
2023/01/23 04:41:19;;;;;;;25.80;15.67;;;1.40;99.90;;;;;;6240668;23;20252;-82
2023/01/23 04:43:45;;;;;;;24.27;12.85;;;1.40;99.90;;;;;;6242985;22;20192;-84
2023/01/23 04:46:10;;;;;;;24.93;14.37;;;1.30;99.90;;;;;;6242517;23;20145;-82
2023/01/23 04:48:35;;;;;;;25.13;13.10;;;1.20;99.90;;;;;;6239426;23;20160;-83
2023/01/23 04:51:01;;;;;;;23.27;11.83;;;1.10;99.90;;;;;;6247785;23;20165;-84
2023/01/23 04:53:27;;;;;;;26.37;12.50;;;1.00;99.90;;;;;;6247925;23;20188;-83
2023/01/23 04:55:52;;;;;;;24.87;14.40;;;1.10;99.90;;;;;;6247674;23;20182;-82
2023/01/23 04:58:18;;;;;;;26.10;13.47;;;1.10;99.90;;;;;;6239670;23;20267;-83
2023/01/23 05:00:45;;;;;;;22.17;12.10;;;1.10;99.90;;;;;;6236219;23;20160;-81
2023/01/23 05:03:10;;;;;;;26.88;13.40;;;1.10;99.90;;;;;;6239820;23;20163;-84
2023/01/23 05:05:36;;;;;;;29.77;12.93;;;1.10;99.90;;;;;;6233779;23;20174;-83
2023/01/23 05:08:01;;;;;;;28.97;12.50;;;1.10;99.90;;;;;;6237128;23;20633;-82
2023/01/23 05:10:27;;;;;;;24.37;12.03;;;1.10;99.90;;;;;;6237039;23;20159;-83
2023/01/23 05:12:52;;;;;;;26.27;12.67;;;1.20;99.90;;;;;;6238916;23;20152;-82
2023/01/23 05:15:20;;;;;;;26.83;13.10;;;1.10;99.90;;;;;;6233934;23;20768;-82
2023/01/23 05:17:46;;;;;;;26.10;11.65;;;1.10;99.90;;;;;;6242055;22;20224;-82
2023/01/23 05:20:12;;;;;;;19.98;12.15;;;1.10;99.90;;;;;;6239194;22;20150;-82
2023/01/23 05:22:38;;;;;;;28.88;12.93;;;1.10;99.90;;;;;;6237988;23;20599;-82
2023/01/23 05:25:04;;;;;;;27.00;12.55;;;1.10;99.90;;;;;;6246768;22;20236;-81
2023/01/23 05:27:30;;;;;;;25.67;10.32;;;1.20;99.90;;;;;;6243129;23;20167;-80
2023/01/23 05:29:55;;;;;;;24.00;11.20;;;1.20;99.90;;;;;;6239049;23;20145;-82
2023/01/23 05:32:21;;;;;;;28.00;13.40;;;1.10;99.90;;;;;;6238300;23;20147;-81
2023/01/23 05:34:46;;;;;;;19.40;10.97;;;1.10;99.90;;;;;;6238097;23;20176;-83
2023/01/23 05:37:12;;;;;;;25.97;12.50;;;1.10;99.90;;;;;;6240127;23;20149;-85
2023/01/23 05:39:37;;;;;;;22.17;11.03;;;1.10;99.90;;;;;;6234994;23;20156;-84
2023/01/23 05:42:03;;;;;;;24.20;12.97;;;1.10;99.90;;;;;;6232945;23;20176;-83
2023/01/23 05:44:29;;;;;;;26.30;12.53;;;1.10;99.90;;;;;;6236455;23;20452;-82
2023/01/23 05:46:54;;;;;;;26.75;12.73;;;1.10;99.90;;;;;;6233468;23;20159;-82
2023/01/23 05:49:20;;;;;;;27.67;12.60;;;1.10;99.90;;;;;;6237347;23;20172;-83
2023/01/23 05:51:45;;;;;;;31.60;15.00;;;1.00;99.90;;;;;;6242752;23;20152;-84
2023/01/23 05:54:11;;;;;;;30.10;13.50;;;1.10;99.90;;;;;;6239837;23;20797;-85
2023/01/23 05:56:37;;;;;;;26.80;13.03;;;1.10;99.90;;;;;;6240828;23;20147;-82
2023/01/23 05:59:04;;;;;;;26.97;12.70;;;1.10;99.90;;;;;;6245143;23;20179;-82
2023/01/23 06:01:29;;;;;;;26.52;13.10;;;1.10;99.90;;;;;;6249150;23;20152;-83
2023/01/23 06:03:55;;;;;;;27.90;11.97;;;1.10;99.90;;;;;;6248525;23;20258;-82
2023/01/23 06:06:20;;;;;;;26.67;14.40;;;1.10;99.90;;;;;;6247727;23;20163;-85
2023/01/23 06:08:46;;;;;;;26.90;12.27;;;1.10;99.90;;;;;;6247129;23;20236;-84
2023/01/23 06:11:11;;;;;;;27.60;13.03;;;1.10;99.90;;;;;;6245967;23;20633;-83
2023/01/23 06:13:37;;;;;;;25.17;11.30;;;1.10;99.90;;;;;;6244027;23;20661;-81
2023/01/23 06:16:03;;;;;;;30.67;16.20;;;1.10;99.90;;;;;;6246877;23;20140;-85
2023/01/23 06:18:28;;;;;;;26.90;12.93;;;1.00;99.90;;;;;;6244409;23;20218;-84
2023/01/23 06:20:59;;;;;;;27.53;12.20;;;1.00;99.90;;;;;;6245183;23;20509;-84
2023/01/23 06:23:25;;;;;;;31.90;13.20;;;0.90;99.90;;;;;;6247106;22;20168;-84
2023/01/23 06:25:51;;;;;;;33.13;14.30;;;0.90;99.90;;;;;;6241223;23;20607;-83
2023/01/23 06:28:17;;;;;;;22.93;12.67;;;0.90;99.90;;;;;;6241280;23;20160;-83
2023/01/23 06:30:42;;;;;;;29.27;13.07;;;0.90;99.90;;;;;;6243855;23;20952;-84
2023/01/23 06:33:08;;;;;;;30.07;13.70;;;1.10;99.90;;;;;;6246961;23;20156;-85
2023/01/23 06:35:33;;;;;;;28.63;12.70;;;1.00;99.90;;;;;;6247664;23;20175;-83
2023/01/23 06:37:59;;;;;;;29.63;14.07;;;1.00;99.90;;;;;;6248318;23;20162;-85
2023/01/23 06:40:24;;;;;;;22.83;11.60;;;1.00;99.90;;;;;;6246456;23;20567;-84
2023/01/23 06:42:54;;;;;;;27.33;14.57;;;1.10;99.90;;;;;;6244877;23;20484;-83
2023/01/23 06:45:19;;;;;;;28.23;13.10;;;1.10;99.90;;;;;;6246758;22;20168;-80
2023/01/23 06:47:45;;;;;;;26.93;12.17;;;1.00;99.90;;;;;;6250275;22;20144;-80
2023/01/23 06:50:10;;;;;;;23.97;12.67;;;0.90;99.90;;;;;;6240647;23;20246;-82
2023/01/23 06:52:36;;;;;;;24.73;13.07;;;0.90;99.90;;;;;;6239393;23;20144;-83
2023/01/23 06:55:02;;;;;;;24.70;11.70;;;0.90;99.90;;;;;;6241391;23;20275;-84
2023/01/23 06:57:27;;;;;;;25.23;12.27;;;1.00;99.90;;;;;;6246576;23;20133;-82
2023/01/23 06:59:53;;;;;;;25.67;14.13;;;1.10;99.90;;;;;;6238039;23;20167;-81
2023/01/23 07:02:18;;;;;;;25.80;14.00;;;1.10;99.90;;;;;;6237896;23;20904;-84
2023/01/23 07:04:44;;;;;;;27.67;13.47;;;1.10;99.90;;;;;;6238739;23;20203;-83
2023/01/23 07:07:09;;;;;;;26.33;11.67;;;1.00;99.90;;;;;;6236515;23;20148;-82
2023/01/23 07:09:35;;;;;;;26.50;13.13;;;0.90;99.90;;;;;;6238132;23;20613;-82
2023/01/23 07:12:00;;;;;;;25.43;13.33;;;0.90;99.90;;;;;;6234142;23;20140;-85
2023/01/23 07:14:27;;;;;;;26.60;12.37;;;0.90;99.90;;;;;;6233887;23;20980;-80
2023/01/23 07:16:54;;;;;;;26.80;13.52;;;0.90;99.90;;;;;;6234813;23;20144;-83
2023/01/23 07:19:20;;;;;;;31.50;15.25;;;0.90;99.90;;;;;;6237451;22;20145;-82
2023/01/23 07:21:47;;;;;;;31.67;16.20;;;0.80;99.90;;;;;;6235035;23;20197;-83
2023/01/23 07:24:13;;;;;;;25.45;13.77;;;0.80;99.90;;;;;;6233320;23;20260;-83
2023/01/23 07:26:38;;;;;;;31.50;13.97;;;0.80;99.90;;;;;;6231984;23;20256;-83
2023/01/23 07:29:05;;;;;;;22.90;10.83;;;0.80;99.90;;;;;;6232099;23;20266;-84
2023/01/23 07:31:31;;;;;;;26.17;14.27;;;0.90;99.90;;;;;;6233227;23;20157;-83
2023/01/23 07:33:56;;;;;;;27.03;14.47;;;0.90;99.90;;;;;;6236005;23;20180;-83
2023/01/23 07:36:22;;;;;;;30.30;14.33;;;0.90;99.90;;;;;;6237807;23;20641;-84
2023/01/23 07:38:47;;;;;;;29.87;13.17;;;1.00;99.90;;;;;;6233861;23;20153;-81
2023/01/23 07:41:13;;;;;;;33.20;15.93;;;1.00;99.90;;;;;;6236829;23;20145;-83
2023/01/23 07:43:38;;;;;;;23.47;13.43;;;1.00;99.90;;;;;;6237234;23;20180;-83
2023/01/23 07:46:04;;;;;;;33.40;15.70;;;1.10;99.90;;;;;;6233329;23;20152;-82
2023/01/23 07:48:30;;;;;;;35.93;15.20;;;1.10;99.90;;;;;;6234068;23;20145;-83
2023/01/23 07:50:55;;;;;;;34.77;14.50;;;1.10;99.90;;;;;;6243780;23;20153;-82
2023/01/23 07:53:21;;;;;;;27.40;15.40;;;1.10;99.90;;;;;;6239195;23;20168;-84
2023/01/23 07:55:46;;;;;;;27.67;14.10;;;1.10;99.90;;;;;;6238640;23;20191;-85
2023/01/23 07:58:12;;;;;;;27.33;14.70;;;1.20;99.90;;;;;;6237626;23;20178;-82
2023/01/23 08:00:37;;;;;;;37.30;16.20;;;1.20;99.90;;;;;;6250552;22;20164;-81
2023/01/23 08:03:03;;;;;;;28.63;14.30;;;1.30;99.90;;;;;;6235277;23;20790;-83
2023/01/23 08:05:29;;;;;;;30.30;14.93;;;1.20;99.90;;;;;;6235648;23;20375;-82
2023/01/23 08:07:54;;;;;;;24.70;13.70;;;1.30;99.90;;;;;;6233262;23;20140;-82
2023/01/23 08:10:21;;;;;;;26.87;13.33;;;1.30;99.90;;;;;;6233642;23;20672;-82
2023/01/23 08:12:46;;;;;;;31.77;13.57;;;1.30;99.90;;;;;;6233669;23;20523;-84
2023/01/23 08:15:12;;;;;;;30.77;13.57;;;1.30;99.90;;;;;;6250875;23;20184;-83
2023/01/23 08:17:37;;;;;;;35.57;16.83;;;1.30;99.90;;;;;;6239029;23;20167;-82
2023/01/23 08:20:03;;;;;;;31.13;15.13;;;1.30;99.90;;;;;;6234542;23;20152;-82
2023/01/23 08:22:29;;;;;;;30.50;14.67;;;1.30;99.90;;;;;;6233900;23;20160;-82
2023/01/23 08:24:54;;;;;;;33.07;15.60;;;1.30;99.90;;;;;;6234779;23;20407;-83
2023/01/23 08:27:20;;;;;;;31.57;16.80;;;1.30;99.90;;;;;;6233367;23;20157;-84
2023/01/23 08:29:45;;;;;;;36.57;15.50;;;1.30;99.90;;;;;;6233493;23;20157;-82
2023/01/23 08:32:11;;;;;;;27.23;12.93;;;1.30;99.90;;;;;;6233872;23;20502;-81
2023/01/23 08:34:37;;;;;;;27.33;15.17;;;1.30;99.90;;;;;;6234012;23;20568;-84
2023/01/23 08:37:02;;;;;;;35.23;16.37;;;1.40;99.90;;;;;;6235706;23;20183;-83
2023/01/23 08:39:28;;;;;;;28.40;15.83;;;1.50;99.90;;;;;;6234792;23;20621;-83
2023/01/23 08:41:53;;;;;;;34.60;16.90;;;1.50;99.90;;;;;;6233267;23;20203;-84
2023/01/23 08:44:19;;;;;;;37.50;15.70;;;1.40;99.90;;;;;;6232067;23;20177;-84
2023/01/23 08:46:45;;;;;;;33.47;15.37;;;1.40;99.90;;;;;;6239182;23;20505;-82
2023/01/23 08:49:11;;;;;;;39.38;15.50;;;1.40;99.90;;;;;;6238126;22;20178;-84
2023/01/23 08:51:36;;;;;;;32.30;14.67;;;1.30;99.90;;;;;;6234297;23;20161;-83
2023/01/23 08:54:02;;;;;;;35.80;14.80;;;1.30;99.90;;;;;;6236905;23;20184;-83
2023/01/23 08:56:28;;;;;;;32.77;14.17;;;1.30;99.90;;;;;;6234139;23;20214;-82
2023/01/23 08:58:53;;;;;;;34.53;15.57;;;1.30;99.90;;;;;;6236199;23;20140;-84
2023/01/23 09:01:23;;;;;;;29.90;15.57;;;1.20;99.90;;;;;;6238655;22;20141;-83
2023/01/23 09:03:48;;;;;;;42.33;14.88;;;1.10;99.90;;;;;;6235380;22;20447;-85
2023/01/23 09:06:16;;;;;;;41.90;17.67;;;1.10;99.90;;;;;;6228384;23;20219;-83
2023/01/23 09:08:42;;;;;;;36.22;13.98;;;1.10;99.90;;;;;;6236239;22;20669;-83
2023/01/23 09:11:09;;;;;;;33.13;16.13;;;1.10;99.90;;;;;;6236545;23;20156;-82
2023/01/23 09:13:35;;;;;;;34.63;15.57;;;1.10;99.90;;;;;;6236444;23;20431;-82
2023/01/23 09:16:01;;;;;;;33.00;16.03;;;1.20;99.90;;;;;;6253518;22;20160;-81
2023/01/23 09:18:26;;;;;;;33.92;15.38;;;1.20;99.90;;;;;;6241274;22;20178;-84
2023/01/23 09:20:53;;;;;;;38.80;17.77;;;1.30;99.90;;;;;;6233563;23;20254;-82
2023/01/23 09:23:19;;;;;;;38.33;19.02;;;1.40;99.90;;;;;;6233879;23;20639;-84
2023/01/23 09:25:44;;;;;;;26.42;15.10;;;1.40;99.90;;;;;;6230151;23;20814;-82
2023/01/23 09:28:10;;;;;;;37.40;18.30;;;1.40;99.90;;;;;;6233895;23;20156;-82
2023/01/23 09:30:36;;;;;;;31.00;15.07;;;1.40;99.90;;;;;;6232515;23;20221;-81
2023/01/23 09:33:02;;;;;;;33.40;15.60;;;1.50;99.90;;;;;;6234464;23;20156;-82
2023/01/23 09:35:27;;;;;;;40.57;16.50;;;1.40;99.90;;;;;;6231150;23;20510;-80
2023/01/23 09:37:59;;;;;;;41.17;18.50;;;1.40;99.90;;;;;;6236339;23;20425;-82
2023/01/23 09:40:28;;;;;;;34.03;14.32;;;1.60;99.90;;;;;;6232243;23;20446;-82
2023/01/23 09:42:59;;;;;;;35.15;15.52;;;1.70;99.90;;;;;;6248287;22;20149;-81
2023/01/23 09:45:26;;;;;;;29.52;15.90;;;1.80;99.90;;;;;;6235831;23;20187;-82
2023/01/23 09:48:09;;;;;;;29.52;18.05;;;1.90;99.90;;;;;;6238691;22;20629;-86
2023/01/23 09:50:50;;;;;;;29.90;16.02;;;2.00;99.90;;;;;;6248249;23;20144;-82
2023/01/23 09:53:20;;;;;;;29.73;15.40;;;2.00;99.90;;;;;;6237424;22;20137;-82
2023/01/23 09:55:48;;;;;;;26.88;14.38;;;2.10;99.90;;;;;;6235755;23;20579;-82
2023/01/23 09:58:59;;;;;;;27.75;13.55;;;2.00;99.90;;;;;;6236465;23;20180;-83
2023/01/23 10:01:29;;;;;;;30.13;13.35;;;1.90;99.90;;;;;;6088414;23;20163;-82
2023/01/23 10:03:54;;;;;;;29.20;12.98;;;1.80;99.90;;;;;;6089883;23;20318;-83
2023/01/23 10:06:29;;;;;;;24.70;13.27;;;1.70;99.90;;;;;;6192185;22;20157;-80
2023/01/23 10:09:22;;;;;;;21.48;11.88;;;1.60;99.90;;;;;;6256328;22;20159;-80
2023/01/23 10:12:17;;;;;;;25.10;12.88;;;1.80;99.90;;;;;;6255336;23;20149;-81
2023/01/23 10:14:49;;;;;;;24.48;12.73;;;1.80;99.90;;;;;;6246481;23;20188;-83
2023/01/23 10:17:37;;;;;;;25.52;12.80;;;1.70;99.90;;;;;;6253404;23;20161;-83
2023/01/23 10:20:38;;;;;;;27.35;14.40;;;1.80;99.90;;;;;;6252654;23;20180;-81
2023/01/23 10:23:22;;;;;;;25.88;13.05;;;1.70;99.90;;;;;;6260739;22;20153;-81
2023/01/23 10:25:49;;;;;;;18.42;10.30;;;1.70;99.90;;;;;;6253016;23;20141;-82
2023/01/23 10:28:28;;;;;;;22.17;11.63;;;1.70;99.90;;;;;;6252158;22;20197;-80
2023/01/23 10:30:59;;;;;;;25.95;11.80;;;1.70;99.90;;;;;;6254540;23;20135;-81
2023/01/23 10:33:48;;;;;;;20.80;10.25;;;1.80;99.90;;;;;;6247632;22;20194;-84
2023/01/23 10:36:20;;;;;;;20.65;11.85;;;1.80;99.90;;;;;;6242323;23;20141;-84
2023/01/23 10:39:11;;;;;;;28.35;11.65;;;1.90;99.90;;;;;;6243803;22;20141;-83
2023/01/23 10:41:38;;;;;;;23.02;12.23;;;2.00;99.90;;;;;;6241332;23;20202;-82
2023/01/23 10:44:23;;;;;;;21.50;10.60;;;2.20;99.90;;;;;;6238882;23;20183;-81
2023/01/23 10:46:53;;;;;;;22.95;10.63;;;2.20;99.90;;;;;;6239629;23;20701;-82
2023/01/23 10:49:40;;;;;;;22.83;10.50;;;2.10;99.90;;;;;;6243296;22;20191;-82
2023/01/23 10:52:36;;;;;;;20.45;12.10;;;2.00;99.90;;;;;;6244618;23;20167;-84
2023/01/23 10:55:05;;;;;;;25.23;12.00;;;2.00;99.90;;;;;;6241618;22;20180;-84
2023/01/23 10:57:43;;;;;;;19.60;11.15;;;2.00;99.90;;;;;;6240494;22;20132;-84
2023/01/23 11:00:36;;;;;;;23.13;12.40;;;2.20;99.90;;;;;;6238079;23;20482;-83
2023/01/23 11:03:19;;;;;;;16.50;10.68;;;2.30;99.90;;;;;;6241307;22;20479;-83
2023/01/23 11:06:03;;;;;;;17.52;9.98;;;2.30;99.90;;;;;;6242595;23;20152;-83
2023/01/23 11:08:31;;;;;;;22.65;12.88;;;2.30;99.90;;;;;;6240884;23;20144;-83
2023/01/23 11:11:15;;;;;;;17.52;9.88;;;2.20;99.90;;;;;;6231295;22;20148;-83
2023/01/23 11:13:46;;;;;;;23.20;10.60;;;2.40;99.90;;;;;;6238555;23;20180;-85
2023/01/23 11:16:22;;;;;;;22.88;11.98;;;2.60;99.90;;;;;;6236116;22;20164;-84
2023/01/23 11:19:08;;;;;;;25.88;13.10;;;2.80;99.90;;;;;;6234164;23;20168;-83
2023/01/23 11:21:55;;;;;;;21.40;12.70;;;3.00;99.90;;;;;;6231855;22;20136;-84
2023/01/23 11:24:24;;;;;;;22.17;12.18;;;3.10;99.90;;;;;;6233195;23;20798;-85
2023/01/23 11:27:04;;;;;;;24.10;9.95;;;3.30;99.90;;;;;;6228187;23;20164;-81
2023/01/23 11:29:57;;;;;;;24.65;13.13;;;3.20;99.90;;;;;;6236292;23;20148;-84
2023/01/23 11:32:23;;;;;;;23.77;11.95;;;3.30;99.90;;;;;;6235985;23;20145;-84
2023/01/23 11:34:53;;;;;;;25.88;12.85;;;3.00;99.90;;;;;;6236240;23;20268;-84
2023/01/23 11:37:31;;;;;;;29.42;14.32;;;2.90;99.90;;;;;;6234892;23;20153;-84
2023/01/23 11:40:09;;;;;;;24.83;12.73;;;2.70;99.90;;;;;;6238107;22;20618;-83
2023/01/23 11:42:39;;;;;;;25.73;11.80;;;2.70;99.90;;;;;;6228679;23;20590;-82
2023/01/23 11:45:12;;;;;;;20.92;10.50;;;2.70;99.90;;;;;;6235151;23;20256;-81
2023/01/23 11:48:07;;;;;;;23.55;12.63;;;2.70;99.90;;;;;;6248003;22;20155;-81
2023/01/23 11:50:38;;;;;;;20.95;11.73;;;2.80;99.90;;;;;;6239203;23;20145;-83
2023/01/23 11:53:33;;;;;;;19.38;10.88;;;2.90;99.90;;;;;;6237722;23;20160;-80
2023/01/23 11:56:05;;;;;;;21.35;12.35;;;3.00;99.90;;;;;;6239469;22;20172;-82
2023/01/23 11:59:08;;;;;;;22.77;12.35;;;3.00;99.90;;;;;;6235713;23;20156;-81
2023/01/23 12:02:04;;;;;;;18.50;9.98;;;3.10;99.90;;;;;;6234569;23;20152;-83
2023/01/23 12:04:41;;;;;;;20.02;10.52;;;3.00;99.90;;;;;;6237444;22;20176;-85
2023/01/23 12:07:19;;;;;;;18.88;11.52;;;3.00;99.90;;;;;;6236132;23;20174;-83
2023/01/23 12:10:00;;;;;;;20.50;10.95;;;3.00;99.90;;;;;;6260536;22;20140;-82
2023/01/23 12:12:31;;;;;;;23.77;12.60;;;2.90;99.90;;;;;;6241691;23;20144;-83
2023/01/23 12:15:32;;;;;;;19.70;11.25;;;2.70;99.90;;;;;;6236303;23;20242;-82
2023/01/23 12:18:38;;;;;;;20.20;10.52;;;2.60;99.90;;;;;;6235868;23;20493;-82
2023/01/23 12:21:35;;;;;;;17.73;10.38;;;2.50;99.90;;;;;;6236907;23;20580;-81
2023/01/23 12:24:31;;;;;;;28.27;11.27;;;2.50;99.90;;;;;;6234649;23;20263;-83
2023/01/23 12:27:03;;;;;;;27.60;11.30;;;2.50;99.90;;;;;;6241111;22;20538;-82
2023/01/23 12:29:45;;;;;;;26.17;11.50;;;2.50;99.90;;;;;;6235404;23;20147;-83
2023/01/23 12:32:52;;;;;;;20.35;10.20;;;2.70;99.90;;;;;;6236228;23;20231;-84
2023/01/23 12:35:45;;;;;;;23.02;11.07;;;2.90;99.90;;;;;;6090468;23;20265;-84
2023/01/23 12:38:49;;;;;;;18.52;10.73;;;3.00;99.90;;;;;;6242981;22;20140;-82
2023/01/23 12:41:20;;;;;;;20.00;10.07;;;3.10;99.90;;;;;;6240975;22;20224;-82
2023/01/23 12:44:21;;;;;;;21.10;10.95;;;3.20;99.90;;;;;;6239445;23;20200;-85
2023/01/23 12:47:08;;;;;;;21.00;10.23;;;3.00;99.90;;;;;;6241030;22;20168;-84
2023/01/23 12:49:51;;;;;;;21.05;11.18;;;3.00;99.90;;;;;;6247992;23;20283;-82
2023/01/23 12:52:31;;;;;;;20.00;10.50;;;3.00;99.90;;;;;;6242086;23;20148;-82
2023/01/23 12:55:11;;;;;;;18.30;10.05;;;2.80;99.90;;;;;;6240816;23;20179;-84
2023/01/23 12:57:38;;;;;;;23.88;10.45;;;2.80;99.90;;;;;;6239758;23;20140;-81